MMMZ

General Rafael Buelna International Airport

Mazatlán, Mexico
TAF MMMZ 230436Z 2306/2412 00000KT P6SM BKN230 TX30/2321Z TN17/2312Z FM231800 27010KT P6SM SCT090 BKN240 BECMG 2405/2407 08004KT
Issued Valid From Valid To
Apr-23 @ 04:36 UTC
(5 hours ago)
Apr-23 @ 06:00 UTC
(4 hours ago)
Apr-24 @ 12:00 UTC
(-1 days ago)
Apr-23 @ 06:00 to Apr-23 @ 18:00
TAF MMMZ 230436Z 2306/2412 00000KT P6SM BKN230 TX30/2321Z TN17/2312Z
Visibility Clouds
Greater than 6 miles
  • Broken at 23,000' AGL
From Apr-23 @ 18:00 to Apr-24 @ 05:00
FM231800 27010KT P6SM SCT090 BKN240
Wind Visibility Clouds
270° at 10 knots Greater than 6 miles
  • Scattered at 9,000' AGL
  • Broken at 24,000' AGL
Becoming Apr-24 @ 05:00 to Apr-24 @ 12:00
BECMG 2405/2407 08004KT
Wind Visibility Clouds
80° at 4 knots Greater than 6 miles
  • Scattered at 9,000' AGL
  • Broken at 24,000' AGL
TAF MMMZ 230436Z 2306/2412 00000KT P6SM BKN230 TX30/2321Z TN17/2312Z FM231800 27010KT P6SM SCT090 BKN240 BECMG 2405/2407 08004KT
Issued Apr-23 @ 04:36 UTC
(5 hours ago)
Valid From Apr-23 @ 06:00 UTC
(4 hours ago)
Valid To Apr-24 @ 12:00 UTC
(-1 days ago)
Apr-23 @ 06:00 - Apr-23 @ 18:00
Clouds
  • Broken at 23,000' AGL
From Apr-23 @ 18:00 - Apr-24 @ 05:00
Wind Visibility
270° at 10 knots Greater than 6 miles
Clouds
  • Scattered at 9,000' AGL
  • Broken at 24,000' AGL
Becoming Apr-24 @ 05:00 - Apr-24 @ 12:00
Wind Visibility
80° at 4 knots Greater than 6 miles
Clouds
  • Scattered at 9,000' AGL
  • Broken at 24,000' AGL